Time;durP1;ratioP1;P1;durP2;ratioP2;P2;SDS_P1;SDS_P2;PMS_P1;PMS_P2;Temp;Humidity;BMP_temperature;BMP_pressure;BME280_temperature;BME280_humidity;BME280_pressure;Samples;Min_cycle;Max_cycle;Signal;HPM_P1;HPM_P2
2023/11/18 00:01:08;;;;;;;2.80;2.60;;;9.80;99.90;;;;;;5043292;28;20205;-65
2023/11/18 00:03:35;;;;;;;4.67;3.10;;;9.70;99.90;;;;;;5042712;28;20736;-65
2023/11/18 00:06:02;;;;;;;4.03;2.80;;;9.50;99.90;;;;;;5040669;28;20709;-66
2023/11/18 00:08:28;;;;;;;3.27;2.60;;;9.50;99.90;;;;;;5039647;28;20207;-66
2023/11/18 00:10:55;;;;;;;3.43;3.13;;;9.40;99.90;;;;;;5039413;28;20248;-66
2023/11/18 00:13:23;;;;;;;7.80;3.57;;;9.30;99.90;;;;;;5044655;28;20240;-65
2023/11/18 00:15:50;;;;;;;4.27;3.50;;;9.20;99.90;;;;;;5042075;28;20209;-66
2023/11/18 00:18:16;;;;;;;4.77;4.37;;;9.10;99.90;;;;;;5039683;28;20206;-65
2023/11/18 00:20:43;;;;;;;4.03;3.73;;;9.00;99.90;;;;;;5039491;28;20202;-65
2023/11/18 00:23:10;;;;;;;4.63;4.00;;;8.90;99.90;;;;;;5042645;28;20245;-65
2023/11/18 00:25:39;;;;;;;3.97;3.63;;;8.80;99.90;;;;;;5042583;28;20209;-65
2023/11/18 00:28:06;;;;;;;3.70;3.10;;;8.60;99.90;;;;;;5039628;28;20218;-64
2023/11/18 00:30:35;;;;;;;3.70;3.30;;;8.60;99.90;;;;;;5039279;28;20249;-63
2023/11/18 00:33:01;;;;;;;3.83;3.43;;;8.50;99.90;;;;;;5041606;28;20208;-64
2023/11/18 00:35:31;;;;;;;4.03;3.47;;;8.40;99.90;;;;;;5042233;28;20576;-66
2023/11/18 00:37:58;;;;;;;4.07;3.67;;;8.40;99.90;;;;;;5040774;28;20209;-65
2023/11/18 00:40:25;;;;;;;3.77;3.37;;;8.40;99.90;;;;;;5039133;28;20668;-64
2023/11/18 00:42:51;;;;;;;4.37;3.70;;;8.40;99.90;;;;;;5039803;28;20865;-64
2023/11/18 00:45:18;;;;;;;4.43;4.03;;;8.40;99.90;;;;;;5042414;28;20252;-65
2023/11/18 00:47:46;;;;;;;4.80;3.80;;;8.40;99.90;;;;;;5042683;28;20233;-65
2023/11/18 00:50:13;;;;;;;4.73;3.53;;;8.50;99.90;;;;;;5042316;28;20221;-65
2023/11/18 00:52:41;;;;;;;4.13;3.30;;;8.50;99.90;;;;;;5042209;28;20683;-65
2023/11/18 00:55:10;;;;;;;4.97;3.40;;;8.60;99.90;;;;;;5039410;28;20249;-64
2023/11/18 00:57:38;;;;;;;4.87;3.50;;;8.70;99.90;;;;;;5039052;28;20206;-65
2023/11/18 01:00:06;;;;;;;3.40;3.07;;;8.80;99.90;;;;;;5042743;28;20210;-65
2023/11/18 01:02:33;;;;;;;3.40;3.10;;;8.90;99.90;;;;;;5046176;28;20698;-65
2023/11/18 01:05:01;;;;;;;3.77;3.33;;;9.00;99.90;;;;;;5044008;28;20724;-66
2023/11/18 01:07:28;;;;;;;3.70;3.30;;;9.00;99.90;;;;;;5042985;28;20206;-65
2023/11/18 01:09:54;;;;;;;3.70;3.40;;;9.10;99.90;;;;;;5043588;28;20229;-66
2023/11/18 01:12:21;;;;;;;3.63;3.13;;;9.10;99.90;;;;;;5046002;28;20220;-64
2023/11/18 01:14:48;;;;;;;4.03;3.13;;;9.20;99.90;;;;;;5045655;28;20694;-65
2023/11/18 01:17:15;;;;;;;4.57;3.97;;;9.30;99.90;;;;;;5042598;28;20205;-64
2023/11/18 01:19:41;;;;;;;5.07;3.73;;;9.30;99.90;;;;;;5042337;28;20237;-64
2023/11/18 01:22:11;;;;;;;3.70;3.33;;;9.20;99.90;;;;;;5045711;28;20209;-65
2023/11/18 01:24:38;;;;;;;3.70;3.30;;;9.10;99.90;;;;;;5045556;28;20662;-65
2023/11/18 01:27:07;;;;;;;3.30;2.80;;;9.20;99.90;;;;;;5043406;28;20209;-64
2023/11/18 01:29:34;;;;;;;3.70;3.40;;;9.10;99.90;;;;;;5042188;28;20226;-66
2023/11/18 01:32:08;;;;;;;4.27;3.40;;;9.20;99.90;;;;;;5043938;28;20206;-67
2023/11/18 01:34:35;;;;;;;4.13;3.13;;;9.20;99.90;;;;;;5045797;28;20226;-67
2023/11/18 01:37:02;;;;;;;6.37;2.90;;;9.30;99.90;;;;;;5043891;28;20567;-66
2023/11/18 01:39:31;;;;;;;4.30;3.03;;;9.30;99.90;;;;;;5042318;28;20289;-64
2023/11/18 01:41:59;;;;;;;4.87;3.20;;;9.30;99.90;;;;;;5043676;28;20214;-64
2023/11/18 01:44:28;;;;;;;3.67;2.97;;;9.40;99.90;;;;;;5045578;28;20600;-64
2023/11/18 01:46:54;;;;;;;3.70;2.83;;;9.40;99.90;;;;;;5044317;28;20206;-64
2023/11/18 01:49:22;;;;;;;3.70;3.07;;;9.40;99.90;;;;;;5042036;28;20206;-65
2023/11/18 01:51:52;;;;;;;3.13;2.67;;;9.40;99.90;;;;;;5041998;28;20664;-65
2023/11/18 01:54:19;;;;;;;2.83;2.60;;;9.40;99.90;;;;;;5045166;28;20226;-64
2023/11/18 01:56:48;;;;;;;2.70;2.30;;;9.40;99.90;;;;;;5045170;28;20205;-64
2023/11/18 01:59:18;;;;;;;2.73;2.53;;;9.40;99.90;;;;;;5033626;28;20202;-64
2023/11/18 02:01:47;;;;;;;3.43;2.60;;;9.50;99.90;;;;;;5042019;28;20198;-64
2023/11/18 02:04:14;;;;;;;2.57;2.30;;;9.50;99.90;;;;;;5033589;28;20317;-64
2023/11/18 02:06:41;;;;;;;2.60;2.40;;;9.50;99.90;;;;;;5041670;28;20206;-64
2023/11/18 02:09:08;;;;;;;2.47;2.27;;;9.50;99.90;;;;;;5044294;28;20210;-63
2023/11/18 02:11:41;;;;;;;3.63;2.67;;;9.60;99.90;;;;;;5044076;28;20217;-64
2023/11/18 02:14:13;;;;;;;3.47;2.40;;;9.60;99.90;;;;;;5044873;28;20227;-64
2023/11/18 02:16:42;;;;;;;3.70;2.30;;;9.60;99.90;;;;;;5045108;28;20213;-64
2023/11/18 02:19:21;;;;;;;3.60;2.50;;;9.60;99.90;;;;;;5042075;28;20255;-64
2023/11/18 02:21:49;;;;;;;2.67;2.37;;;9.60;99.90;;;;;;5041470;28;20229;-64
2023/11/18 02:24:26;;;;;;;4.37;2.47;;;9.60;99.90;;;;;;5033145;28;20313;-66
2023/11/18 02:26:55;;;;;;;4.77;2.63;;;9.60;99.90;;;;;;5042022;28;20206;-65
2023/11/18 02:29:21;;;;;;;4.27;2.63;;;9.50;99.90;;;;;;5044637;28;20293;-66
2023/11/18 02:31:53;;;;;;;2.67;2.23;;;9.50;99.90;;;;;;5044716;28;20228;-66
2023/11/18 02:34:25;;;;;;;2.73;2.30;;;9.50;99.90;;;;;;5033452;28;20244;-65
2023/11/18 02:36:55;;;;;;;3.90;2.70;;;9.50;99.90;;;;;;5041460;28;20206;-63
2023/11/18 02:39:28;;;;;;;2.90;2.33;;;9.60;99.90;;;;;;5044574;28;20336;-64
2023/11/18 02:41:58;;;;;;;2.67;2.47;;;9.60;99.90;;;;;;5043608;28;20255;-64
2023/11/18 02:44:25;;;;;;;2.93;2.57;;;9.60;99.90;;;;;;5041066;28;20226;-64
2023/11/18 02:46:52;;;;;;;3.07;2.77;;;9.60;99.90;;;;;;5041333;28;20202;-64
2023/11/18 02:49:19;;;;;;;2.70;2.40;;;9.60;99.90;;;;;;5044070;28;20288;-64
2023/11/18 02:51:47;;;;;;;3.27;2.40;;;9.70;99.90;;;;;;5044411;28;20240;-64
2023/11/18 02:54:16;;;;;;;2.97;2.67;;;9.60;99.90;;;;;;5040548;28;20800;-64
2023/11/18 02:56:43;;;;;;;2.83;2.60;;;9.70;99.90;;;;;;5041020;28;20206;-65
2023/11/18 02:59:11;;;;;;;3.10;2.70;;;9.70;99.90;;;;;;5043218;28;20210;-64
2023/11/18 03:01:39;;;;;;;2.87;2.53;;;9.70;99.90;;;;;;5043989;28;20620;-64
2023/11/18 03:04:06;;;;;;;3.43;2.60;;;9.70;99.90;;;;;;5041339;28;20237;-65
2023/11/18 03:06:33;;;;;;;3.03;2.63;;;9.70;99.90;;;;;;5040651;28;20212;-64
2023/11/18 03:09:00;;;;;;;2.83;2.63;;;9.70;99.90;;;;;;5041765;28;20219;-64
2023/11/18 03:11:29;;;;;;;3.33;2.40;;;9.70;99.90;;;;;;5043644;28;20596;-65
2023/11/18 03:13:56;;;;;;;2.73;2.50;;;9.70;99.90;;;;;;5042782;28;20228;-65
2023/11/18 03:16:24;;;;;;;2.57;2.37;;;9.70;99.90;;;;;;5040264;28;20203;-65
2023/11/18 03:18:51;;;;;;;2.93;2.60;;;9.80;99.90;;;;;;5040152;28;20208;-65
2023/11/18 03:21:19;;;;;;;2.97;2.70;;;9.80;99.90;;;;;;5043800;28;20202;-64
2023/11/18 03:23:46;;;;;;;2.77;2.53;;;9.80;99.90;;;;;;5043594;28;20233;-65
2023/11/18 03:26:12;;;;;;;3.83;2.50;;;9.80;99.90;;;;;;5040247;28;20668;-63
2023/11/18 03:28:40;;;;;;;3.40;2.67;;;9.80;99.90;;;;;;5040140;28;20210;-64
2023/11/18 03:31:09;;;;;;;3.80;2.80;;;9.70;99.90;;;;;;5041823;28;20827;-64
2023/11/18 03:33:37;;;;;;;2.67;2.20;;;9.70;99.90;;;;;;5043421;28;20248;-65
2023/11/18 03:36:04;;;;;;;2.63;2.30;;;9.70;99.90;;;;;;5041531;28;20201;-64
2023/11/18 03:38:31;;;;;;;3.43;2.27;;;9.70;99.90;;;;;;5039947;28;20213;-64
2023/11/18 03:40:58;;;;;;;2.40;2.20;;;9.70;99.90;;;;;;5040707;28;20206;-65
2023/11/18 03:43:24;;;;;;;5.07;2.50;;;9.70;99.90;;;;;;5043343;28;20202;-64
2023/11/18 03:45:52;;;;;;;2.63;2.23;;;9.70;99.90;;;;;;5043224;28;20601;-64
2023/11/18 03:48:19;;;;;;;2.40;2.07;;;9.70;99.90;;;;;;5031979;28;20198;-64
2023/11/18 03:50:47;;;;;;;2.30;2.00;;;9.80;99.90;;;;;;5039601;28;20229;-64
2023/11/18 03:53:14;;;;;;;5.13;2.30;;;9.80;99.90;;;;;;5042701;28;20579;-64
2023/11/18 03:55:42;;;;;;;2.77;2.10;;;9.80;99.90;;;;;;5042949;28;20212;-64
2023/11/18 03:58:09;;;;;;;3.47;2.30;;;9.80;99.90;;;;;;5040635;28;20213;-64
2023/11/18 04:00:36;;;;;;;5.50;2.47;;;9.90;99.90;;;;;;5039459;28;20229;-64
2023/11/18 04:03:03;;;;;;;2.20;2.00;;;9.90;99.90;;;;;;5040788;28;20638;-65
2023/11/18 04:05:30;;;;;;;2.37;2.03;;;9.80;99.90;;;;;;5075012;22;20226;-60
2023/11/18 04:07:58;;;;;;;2.73;2.33;;;9.70;99.90;;;;;;5060562;28;20297;-58
2023/11/18 04:10:25;;;;;;;2.87;2.53;;;9.60;99.90;;;;;;5062948;28;20228;-58
2023/11/18 04:12:51;;;;;;;4.93;2.80;;;9.50;99.90;;;;;;5062910;28;20705;-58
2023/11/18 04:15:18;;;;;;;2.70;2.50;;;9.30;99.90;;;;;;5050964;28;20713;-59
2023/11/18 04:17:45;;;;;;;3.23;2.93;;;9.20;99.90;;;;;;5059648;28;20213;-59
2023/11/18 04:20:12;;;;;;;3.70;3.07;;;9.10;99.90;;;;;;5061961;28;20213;-58
2023/11/18 04:22:40;;;;;;;4.63;2.97;;;9.00;99.90;;;;;;5064354;28;20685;-58
2023/11/18 04:25:10;;;;;;;7.30;3.37;;;9.00;99.90;;;;;;5060890;28;20229;-58
2023/11/18 04:27:36;;;;;;;3.30;3.00;;;8.80;99.90;;;;;;5065100;28;20292;-59
2023/11/18 04:30:03;;;;;;;3.93;3.13;;;8.80;99.90;;;;;;5069152;28;20208;-59
2023/11/18 04:32:32;;;;;;;4.77;3.13;;;8.80;99.90;;;;;;5071378;28;20316;-58
2023/11/18 04:34:59;;;;;;;3.63;3.13;;;8.70;99.90;;;;;;5072348;28;20225;-57
2023/11/18 04:37:26;;;;;;;4.40;3.70;;;8.70;99.90;;;;;;5075317;28;20282;-58
2023/11/18 04:39:55;;;;;;;10.93;7.93;;;8.60;99.90;;;;;;5074839;28;20215;-59
2023/11/18 04:42:23;;;;;;;4.43;3.30;;;8.70;99.90;;;;;;5075078;28;20716;-58
2023/11/18 04:44:50;;;;;;;3.73;2.97;;;8.60;99.90;;;;;;5074787;28;20224;-59
2023/11/18 04:47:18;;;;;;;3.30;2.80;;;8.60;99.90;;;;;;5074886;28;20696;-58
2023/11/18 04:49:44;;;;;;;3.63;2.93;;;8.70;99.90;;;;;;5075082;28;20303;-60
2023/11/18 04:52:11;;;;;;;3.23;2.93;;;8.70;99.90;;;;;;5074724;28;20294;-59
2023/11/18 04:54:38;;;;;;;2.80;2.50;;;8.70;99.90;;;;;;5074780;28;20732;-58
2023/11/18 04:57:05;;;;;;;3.63;2.40;;;8.80;99.90;;;;;;5074832;28;20204;-58
2023/11/18 04:59:33;;;;;;;4.87;2.53;;;8.80;99.90;;;;;;5074635;28;20303;-58
2023/11/18 05:02:02;;;;;;;2.97;2.50;;;8.90;99.90;;;;;;5074803;28;20251;-58
2023/11/18 05:04:29;;;;;;;3.33;2.63;;;8.80;99.90;;;;;;5074224;28;20243;-58
2023/11/18 05:06:56;;;;;;;5.17;3.83;;;8.90;99.90;;;;;;5074211;28;20209;-58
2023/11/18 05:09:24;;;;;;;3.33;2.87;;;8.90;99.90;;;;;;5074542;28;20295;-59
2023/11/18 05:11:50;;;;;;;2.73;2.53;;;9.00;99.90;;;;;;5074237;28;20315;-59
2023/11/18 05:14:17;;;;;;;2.60;2.40;;;9.00;99.90;;;;;;5074617;28;20229;-58
2023/11/18 05:16:45;;;;;;;2.50;2.27;;;9.10;99.90;;;;;;5074155;28;20237;-58
2023/11/18 05:19:12;;;;;;;3.17;2.73;;;9.10;99.90;;;;;;5074201;28;20299;-58
2023/11/18 05:21:39;;;;;;;2.50;2.30;;;9.10;99.90;;;;;;5074273;28;20682;-57
2023/11/18 05:24:07;;;;;;;3.77;3.10;;;9.20;99.90;;;;;;5073624;28;20714;-59
2023/11/18 05:26:34;;;;;;;5.27;4.17;;;9.20;99.90;;;;;;5074179;28;20232;-59
2023/11/18 05:29:02;;;;;;;3.30;2.70;;;9.20;99.90;;;;;;5074106;28;20220;-58
2023/11/18 05:31:30;;;;;;;6.90;3.57;;;9.20;99.90;;;;;;5073930;28;20253;-58
2023/11/18 05:33:58;;;;;;;3.20;2.30;;;9.30;99.90;;;;;;5073805;28;20225;-59
2023/11/18 05:36:27;;;;;;;2.40;2.20;;;9.20;99.90;;;;;;5074037;28;20212;-58
2023/11/18 05:38:55;;;;;;;2.70;2.50;;;9.20;99.90;;;;;;5073925;28;20258;-58
2023/11/18 05:41:27;;;;;;;9.17;6.53;;;9.10;99.90;;;;;;5073741;28;20216;-58
2023/11/18 05:43:56;;;;;;;5.30;4.13;;;9.00;99.90;;;;;;5073660;28;20228;-58
2023/11/18 05:46:24;;;;;;;3.53;2.70;;;8.80;99.90;;;;;;5072581;28;20300;-57
2023/11/18 05:48:52;;;;;;;3.27;2.70;;;8.60;99.90;;;;;;5074217;28;20232;-59
2023/11/18 05:51:25;;;;;;;8.03;4.10;;;8.50;99.90;;;;;;5073742;28;20266;-58
2023/11/18 05:53:52;;;;;;;3.10;2.47;;;8.40;99.90;;;;;;5073610;28;20221;-62
2023/11/18 05:56:18;;;;;;;5.27;2.73;;;8.30;99.90;;;;;;5073658;28;20205;-58
2023/11/18 05:58:45;;;;;;;4.93;3.27;;;8.10;99.90;;;;;;5073861;28;20205;-59
2023/11/18 06:01:12;;;;;;;3.20;2.43;;;8.00;99.90;;;;;;5073654;28;20564;-59
2023/11/18 06:03:39;;;;;;;4.17;3.23;;;7.90;99.90;;;;;;5073781;28;20240;-58
2023/11/18 06:06:08;;;;;;;6.83;3.30;;;7.80;99.90;;;;;;5073566;28;20205;-59
2023/11/18 06:08:38;;;;;;;2.97;2.37;;;7.70;99.90;;;;;;5073479;28;20598;-59
2023/11/18 06:11:12;;;;;;;2.93;2.53;;;7.60;99.90;;;;;;5073230;28;20229;-58
2023/11/18 06:13:42;;;;;;;2.90;2.30;;;7.60;99.90;;;;;;5073468;28;20239;-58
2023/11/18 06:16:14;;;;;;;5.03;2.50;;;7.50;99.90;;;;;;5073261;28;20205;-59
2023/11/18 06:18:42;;;;;;;5.40;2.70;;;7.40;99.90;;;;;;5073898;28;20270;-59
2023/11/18 06:21:10;;;;;;;3.37;2.90;;;7.30;99.90;;;;;;5072828;28;20197;-58
2023/11/18 06:23:38;;;;;;;3.70;2.60;;;7.30;99.90;;;;;;5072969;28;20732;-57
2023/11/18 06:26:06;;;;;;;4.47;2.60;;;7.20;99.90;;;;;;5072873;28;20585;-58
2023/11/18 06:28:33;;;;;;;4.07;3.23;;;7.10;99.90;;;;;;5073122;28;20211;-59
2023/11/18 06:31:00;;;;;;;3.43;2.87;;;7.10;99.90;;;;;;5073302;28;20267;-57
2023/11/18 06:33:27;;;;;;;3.00;2.70;;;7.10;99.90;;;;;;5072676;28;20583;-58
2023/11/18 06:35:56;;;;;;;5.20;4.13;;;7.00;99.90;;;;;;5072282;28;20259;-58
2023/11/18 06:38:24;;;;;;;4.00;2.90;;;7.00;99.90;;;;;;5073072;28;20622;-58
2023/11/18 06:40:52;;;;;;;3.67;3.07;;;6.90;99.90;;;;;;5072445;28;20233;-59
2023/11/18 06:43:20;;;;;;;3.47;3.00;;;6.80;99.90;;;;;;5072711;28;20247;-59
2023/11/18 06:45:48;;;;;;;4.40;3.20;;;6.80;99.90;;;;;;5072114;28;20231;-59
2023/11/18 06:48:15;;;;;;;3.20;2.90;;;6.80;99.90;;;;;;5072545;28;20209;-60
2023/11/18 06:50:43;;;;;;;3.33;2.37;;;6.80;99.90;;;;;;5072160;28;20209;-58
2023/11/18 06:53:11;;;;;;;4.80;3.60;;;6.80;99.90;;;;;;5071991;28;20228;-58
2023/11/18 06:55:38;;;;;;;2.30;2.10;;;6.90;99.90;;;;;;5072356;28;20229;-58
2023/11/18 06:58:06;;;;;;;4.23;2.13;;;6.90;99.90;;;;;;5071897;28;20208;-58
2023/11/18 07:00:32;;;;;;;7.17;5.20;;;7.00;99.90;;;;;;5071974;28;20306;-58
2023/11/18 07:03:01;;;;;;;3.50;2.50;;;7.00;99.90;;;;;;5072065;28;20204;-60
2023/11/18 07:05:28;;;;;;;3.50;2.50;;;7.00;99.90;;;;;;5071938;28;20237;-58
2023/11/18 07:07:55;;;;;;;4.27;2.97;;;7.00;99.90;;;;;;5071961;28;20295;-58
2023/11/18 07:10:22;;;;;;;4.67;3.10;;;6.90;99.90;;;;;;5072061;28;20295;-59
2023/11/18 07:12:49;;;;;;;4.23;3.60;;;7.00;99.90;;;;;;5071875;28;20228;-58
2023/11/18 07:15:17;;;;;;;4.23;3.53;;;7.00;99.90;;;;;;5072112;28;20310;-60
2023/11/18 07:17:43;;;;;;;4.03;3.10;;;6.90;99.90;;;;;;5072198;28;20219;-60
2023/11/18 07:20:13;;;;;;;3.97;3.57;;;6.90;99.90;;;;;;5072355;28;20213;-58
2023/11/18 07:22:40;;;;;;;4.73;3.43;;;6.90;99.90;;;;;;5071939;28;20216;-58
2023/11/18 07:25:09;;;;;;;4.13;3.20;;;6.90;99.90;;;;;;5072108;28;20225;-59
2023/11/18 07:27:36;;;;;;;4.33;3.00;;;6.90;99.90;;;;;;5072141;28;20670;-59
2023/11/18 07:30:04;;;;;;;4.93;3.03;;;7.00;99.90;;;;;;5071773;28;20637;-59
2023/11/18 07:32:34;;;;;;;4.60;3.90;;;7.10;99.90;;;;;;5071515;28;20217;-59
2023/11/18 07:35:01;;;;;;;25.23;13.10;;;7.20;99.90;;;;;;5071547;28;20271;-59
2023/11/18 07:37:27;;;;;;;9.57;6.63;;;7.30;99.90;;;;;;5071699;28;20212;-58
2023/11/18 07:39:55;;;;;;;10.17;6.70;;;7.40;99.90;;;;;;5071529;28;20697;-58
2023/11/18 07:42:21;;;;;;;6.80;4.67;;;7.60;99.90;;;;;;5071345;28;20341;-58
2023/11/18 07:44:48;;;;;;;11.03;5.67;;;7.60;99.90;;;;;;5071252;28;20235;-58
2023/11/18 07:47:16;;;;;;;13.20;9.13;;;7.70;99.90;;;;;;5071672;28;20240;-58
2023/11/18 07:49:45;;;;;;;6.67;5.50;;;7.70;99.90;;;;;;5071623;28;20209;-59
2023/11/18 07:52:12;;;;;;;8.20;6.00;;;7.70;99.90;;;;;;5071322;28;20298;-58
2023/11/18 07:54:39;;;;;;;8.50;5.57;;;7.80;99.90;;;;;;5071043;28;20760;-59
2023/11/18 07:57:10;;;;;;;7.43;5.57;;;8.00;99.90;;;;;;5071581;28;20254;-59
2023/11/18 07:59:36;;;;;;;5.37;4.70;;;8.10;99.90;;;;;;5071010;28;20585;-58
2023/11/18 08:02:08;;;;;;;5.43;4.00;;;8.30;99.90;;;;;;5070950;28;20212;-59
2023/11/18 08:04:35;;;;;;;6.90;4.33;;;8.50;99.90;;;;;;5071149;28;20654;-58
2023/11/18 08:07:04;;;;;;;6.10;4.20;;;8.60;99.90;;;;;;5071044;28;20205;-58
2023/11/18 08:09:31;;;;;;;6.23;4.40;;;8.70;99.90;;;;;;5070281;28;20243;-59
2023/11/18 08:11:58;;;;;;;5.27;3.47;;;8.80;99.90;;;;;;5071414;28;20697;-58
2023/11/18 08:14:25;;;;;;;7.17;3.80;;;8.80;99.90;;;;;;5070787;28;20573;-58
2023/11/18 08:16:53;;;;;;;3.20;2.90;;;8.90;99.90;;;;;;5071511;28;20201;-58
2023/11/18 08:19:19;;;;;;;4.10;3.23;;;9.00;99.90;;;;;;5071106;28;20723;-59
2023/11/18 08:21:46;;;;;;;4.63;3.23;;;9.10;99.90;;;;;;5070789;28;20204;-58
2023/11/18 08:24:14;;;;;;;4.20;3.10;;;9.20;99.90;;;;;;5070539;28;20229;-59
2023/11/18 08:26:41;;;;;;;3.03;2.70;;;9.20;99.90;;;;;;5070826;28;20205;-58
2023/11/18 08:29:08;;;;;;;3.57;3.00;;;9.20;99.90;;;;;;5070716;28;20418;-57
2023/11/18 08:31:34;;;;;;;3.57;2.90;;;9.30;99.90;;;;;;5070535;28;20704;-58
2023/11/18 08:34:01;;;;;;;4.20;3.07;;;9.40;99.90;;;;;;5070739;28;20225;-59
2023/11/18 08:36:32;;;;;;;5.10;4.20;;;9.50;99.90;;;;;;5071050;28;20209;-58
2023/11/18 08:38:59;;;;;;;6.40;4.40;;;9.60;99.90;;;;;;5070984;28;20212;-58
2023/11/18 08:41:31;;;;;;;3.90;3.20;;;9.60;99.90;;;;;;5071012;28;20299;-58
2023/11/18 08:43:57;;;;;;;3.53;3.20;;;9.80;99.90;;;;;;5071146;28;20225;-58
2023/11/18 08:46:24;;;;;;;3.07;2.70;;;10.00;99.90;;;;;;5070987;28;20236;-59
2023/11/18 08:48:51;;;;;;;3.20;2.53;;;10.10;99.90;;;;;;5070842;28;20242;-60
2023/11/18 08:51:18;;;;;;;2.83;2.40;;;10.20;99.90;;;;;;5070857;28;20205;-59
2023/11/18 08:53:45;;;;;;;2.60;2.40;;;10.20;99.90;;;;;;5071340;28;20236;-58
2023/11/18 08:56:14;;;;;;;3.40;2.60;;;10.40;99.90;;;;;;5070526;28;20208;-58
2023/11/18 08:58:44;;;;;;;3.17;2.60;;;10.50;99.90;;;;;;5070972;28;20209;-58
2023/11/18 09:01:14;;;;;;;2.40;2.20;;;10.70;99.90;;;;;;5070664;28;20521;-56
2023/11/18 09:03:48;;;;;;;3.13;2.13;;;10.80;99.90;;;;;;5070540;28;20588;-57
2023/11/18 09:06:18;;;;;;;2.77;1.83;;;10.90;99.90;;;;;;5070891;28;20236;-58
2023/11/18 09:08:52;;;;;;;5.43;2.60;;;11.00;99.90;;;;;;5070520;28;20693;-57
2023/11/18 09:11:19;;;;;;;3.50;2.40;;;11.10;99.90;;;;;;5070723;28;20236;-57
2023/11/18 09:13:51;;;;;;;1.83;1.50;;;11.20;99.90;;;;;;5070490;28;20235;-58
2023/11/18 09:16:20;;;;;;;2.77;1.70;;;11.20;99.90;;;;;;5070863;28;20212;-57
2023/11/18 09:18:48;;;;;;;3.43;1.60;;;11.30;99.90;;;;;;5070592;28;20614;-57
2023/11/18 09:21:15;;;;;;;3.37;1.80;;;11.30;99.90;;;;;;5072267;28;20209;-57
2023/11/18 09:23:42;;;;;;;2.00;1.70;;;11.30;99.90;;;;;;5074280;28;20205;-57
2023/11/18 09:26:10;;;;;;;2.70;1.50;;;11.30;99.90;;;;;;5073959;28;20746;-57
2023/11/18 09:28:37;;;;;;;2.60;1.70;;;11.40;99.90;;;;;;5074198;28;20251;-58
2023/11/18 09:31:11;;;;;;;3.20;1.80;;;11.40;99.90;;;;;;5073968;28;20229;-59
2023/11/18 09:33:39;;;;;;;2.00;1.50;;;11.60;99.90;;;;;;5073770;28;20243;-57
2023/11/18 09:36:08;;;;;;;2.03;1.33;;;11.60;99.90;;;;;;5074079;28;20228;-59
2023/11/18 09:38:36;;;;;;;5.20;1.63;;;11.70;99.90;;;;;;5073919;28;20590;-57
2023/11/18 09:41:07;;;;;;;5.57;2.13;;;11.80;99.90;;;;;;5074023;28;20200;-56
2023/11/18 09:43:41;;;;;;;2.40;1.40;;;11.90;99.90;;;;;;5073803;28;20565;-55
2023/11/18 09:46:13;;;;;;;2.37;1.50;;;12.10;99.90;;;;;;5073477;28;20588;-58
2023/11/18 09:48:46;;;;;;;5.80;4.37;;;12.30;99.90;;;;;;5073988;28;20225;-56
2023/11/18 09:51:17;;;;;;;5.47;1.73;;;12.40;99.90;;;;;;5073669;28;20240;-57
2023/11/18 09:53:46;;;;;;;1.67;1.20;;;12.50;99.90;;;;;;5073818;28;20264;-56
2023/11/18 09:56:26;;;;;;;1.50;1.30;;;12.40;99.90;;;;;;5073438;28;20204;-58
2023/11/18 09:59:03;;;;;;;2.03;1.30;;;12.50;99.90;;;;;;5073737;28;20578;-59
2023/11/18 10:01:37;;;;;;;1.73;1.20;;;12.60;99.90;;;;;;5073810;28;20253;-57
2023/11/18 10:04:06;;;;;;;2.07;1.60;;;12.40;99.90;;;;;;5088949;22;20225;-64
2023/11/18 10:06:36;;;;;;;2.67;1.50;;;12.60;99.90;;;;;;5073295;28;20273;-63
2023/11/18 10:09:15;;;;;;;2.00;1.20;;;12.70;99.90;;;;;;5072868;28;20217;-63
2023/11/18 10:11:46;;;;;;;2.43;1.50;;;12.80;99.90;;;;;;5073425;28;20208;-64
2023/11/18 10:14:15;;;;;;;4.97;1.20;;;12.80;99.90;;;;;;5069237;28;20243;-69
2023/11/18 10:16:46;;;;;;;1.77;1.23;;;12.90;99.90;;;;;;5065230;28;20220;-65
2023/11/18 10:19:14;;;;;;;1.20;1.00;;;12.80;99.90;;;;;;5063274;28;20205;-64
2023/11/18 10:21:41;;;;;;;3.43;2.00;;;12.80;99.90;;;;;;5061093;28;20770;-64
2023/11/18 10:24:14;;;;;;;4.03;1.33;;;12.90;99.90;;;;;;5061652;28;20225;-63
2023/11/18 10:26:41;;;;;;;1.87;1.43;;;12.80;99.90;;;;;;5064762;28;20236;-64
2023/11/18 10:29:10;;;;;;;2.50;1.13;;;12.80;99.90;;;;;;5063880;28;20701;-64
2023/11/18 10:31:44;;;;;;;3.50;1.30;;;12.80;99.90;;;;;;5061167;28;20773;-63
2023/11/18 10:34:15;;;;;;;2.20;1.40;;;13.00;99.90;;;;;;5061357;28;20233;-65
2023/11/18 10:36:43;;;;;;;2.17;1.60;;;13.00;99.90;;;;;;5064948;28;20219;-63
2023/11/18 10:39:16;;;;;;;2.13;1.30;;;13.10;99.90;;;;;;5063448;28;20201;-63
2023/11/18 10:41:47;;;;;;;1.83;1.10;;;13.20;99.90;;;;;;5061169;28;20206;-64
2023/11/18 10:44:18;;;;;;;2.27;1.10;;;13.30;99.90;;;;;;5062323;28;20230;-66
2023/11/18 10:46:53;;;;;;;4.50;1.40;;;13.20;99.90;;;;;;5064251;28;20217;-70
2023/11/18 10:49:22;;;;;;;1.93;0.90;;;13.10;99.90;;;;;;5062092;28;20232;-69
2023/11/18 10:51:51;;;;;;;2.17;1.13;;;13.00;99.90;;;;;;5063168;28;20586;-68
2023/11/18 10:54:19;;;;;;;1.53;1.13;;;13.10;99.90;;;;;;5064962;28;20225;-68
2023/11/18 10:56:49;;;;;;;2.77;1.07;;;13.10;99.90;;;;;;5071961;28;20240;-64
2023/11/18 10:59:18;;;;;;;3.93;1.80;;;13.10;99.90;;;;;;5071689;28;20208;-66
2023/11/18 11:01:48;;;;;;;2.77;1.77;;;13.30;99.90;;;;;;5072017;28;21035;-66
2023/11/18 11:04:16;;;;;;;2.40;1.00;;;13.30;99.90;;;;;;5071512;28;20698;-64
2023/11/18 11:06:52;;;;;;;3.70;1.60;;;13.40;99.90;;;;;;5069094;28;20220;-64
2023/11/18 11:09:20;;;;;;;3.57;1.30;;;13.50;99.90;;;;;;5071591;28;20240;-64
2023/11/18 11:11:51;;;;;;;3.70;1.50;;;13.30;99.90;;;;;;5071827;28;20213;-65
2023/11/18 11:14:20;;;;;;;3.50;1.40;;;13.30;99.90;;;;;;5071298;28;20229;-66
2023/11/18 11:16:53;;;;;;;3.83;1.27;;;13.30;99.90;;;;;;5071864;28;20205;-64
2023/11/18 11:19:26;;;;;;;2.20;1.40;;;13.40;99.90;;;;;;5071404;28;20308;-64
2023/11/18 11:22:02;;;;;;;2.13;1.10;;;13.40;99.90;;;;;;5071470;28;20213;-64
2023/11/18 11:24:42;;;;;;;1.87;1.60;;;13.50;99.90;;;;;;5071218;28;20216;-64
2023/11/18 11:27:28;;;;;;;2.20;1.00;;;13.60;99.90;;;;;;5071341;28;20254;-63
2023/11/18 11:30:10;;;;;;;2.37;1.10;;;13.60;99.90;;;;;;5071452;28;20216;-64
2023/11/18 11:32:41;;;;;;;2.43;1.23;;;13.70;99.90;;;;;;5071932;28;20223;-64
2023/11/18 11:35:18;;;;;;;1.27;0.97;;;13.70;99.90;;;;;;5071027;28;20235;-66
2023/11/18 11:37:48;;;;;;;1.63;0.80;;;13.80;99.90;;;;;;5071665;28;20208;-65
2023/11/18 11:40:21;;;;;;;1.73;1.00;;;13.90;99.90;;;;;;5070979;28;20216;-66
2023/11/18 11:42:54;;;;;;;4.43;1.40;;;14.00;99.90;;;;;;5070484;28;20221;-66
2023/11/18 11:45:28;;;;;;;3.07;1.37;;;14.00;99.90;;;;;;5059477;28;20273;-63
2023/11/18 11:48:12;;;;;;;3.10;1.50;;;13.90;99.90;;;;;;5066723;28;20292;-63
2023/11/18 11:50:54;;;;;;;5.00;3.50;;;14.00;99.90;;;;;;5064438;28;20678;-62
2023/11/18 11:53:27;;;;;;;1.87;1.33;;;13.90;99.90;;;;;;5061266;28;20227;-63
2023/11/18 11:56:04;;;;;;;1.43;1.23;;;13.90;99.90;;;;;;5059752;28;20226;-64
2023/11/18 11:58:32;;;;;;;2.13;1.37;;;13.90;99.90;;;;;;5068288;28;20296;-64
2023/11/18 12:01:07;;;;;;;3.23;1.30;;;13.90;99.90;;;;;;5059649;28;20205;-65
2023/11/18 12:03:39;;;;;;;2.60;1.40;;;13.80;99.90;;;;;;5067492;28;20689;-65
2023/11/18 12:06:08;;;;;;;2.73;1.37;;;13.90;99.90;;;;;;5059362;28;20233;-64
2023/11/18 12:08:39;;;;;;;4.10;2.60;;;13.90;99.90;;;;;;5063068;28;20205;-64
2023/11/18 12:11:09;;;;;;;1.77;0.90;;;14.00;99.90;;;;;;5062776;28;20282;-63
2023/11/18 12:13:39;;;;;;;2.07;1.07;;;13.90;99.90;;;;;;5059283;28;20217;-65
2023/11/18 12:16:10;;;;;;;2.33;1.40;;;13.80;99.90;;;;;;5059087;28;20225;-64
2023/11/18 12:18:36;;;;;;;4.03;1.70;;;13.80;99.90;;;;;;5063721;28;20227;-64
2023/11/18 12:21:04;;;;;;;2.03;1.20;;;13.90;99.90;;;;;;5062748;28;20757;-64
2023/11/18 12:23:34;;;;;;;3.80;0.97;;;14.00;99.90;;;;;;5059450;28;20229;-65
2023/11/18 12:26:03;;;;;;;4.80;1.47;;;14.10;99.90;;;;;;5059233;28;20643;-64
2023/11/18 12:28:34;;;;;;;4.97;4.13;;;13.90;99.90;;;;;;5062316;28;20457;-65
2023/11/18 12:31:05;;;;;;;2.60;1.33;;;13.90;99.90;;;;;;5062717;28;20568;-64
2023/11/18 12:34:05;;;;;;;2.90;1.23;;;13.90;99.90;;;;;;5062768;28;20233;-64
2023/11/18 12:37:07;;;;;;;1.87;0.90;;;13.90;99.90;;;;;;5062750;28;20209;-65
2023/11/18 12:40:13;;;;;;;2.47;1.10;;;13.70;99.90;;;;;;5062754;28;20211;-65
2023/11/18 12:43:05;;;;;;;1.63;0.90;;;13.50;99.90;;;;;;5063506;28;20205;-65
2023/11/18 12:45:53;;;;;;;3.80;1.20;;;13.40;99.90;;;;;;5054694;28;20230;-63
2023/11/18 12:48:26;;;;;;;4.37;1.00;;;13.40;99.90;;;;;;5060918;28;20209;-61
2023/11/18 12:50:55;;;;;;;2.40;1.33;;;13.30;99.90;;;;;;5062522;28;20238;-60
2023/11/18 12:53:25;;;;;;;3.57;1.40;;;13.10;99.90;;;;;;5059880;28;20274;-60
2023/11/18 12:55:53;;;;;;;3.17;1.27;;;13.10;99.90;;;;;;5059770;28;20249;-62
2023/11/18 12:58:23;;;;;;;1.57;0.80;;;13.00;99.90;;;;;;5064567;28;20236;-63
2023/11/18 13:00:49;;;;;;;4.03;2.70;;;13.00;99.90;;;;;;5066550;28;20258;-62
2023/11/18 13:03:17;;;;;;;3.57;1.10;;;13.00;99.90;;;;;;5065444;28;20208;-62